Venango, Pennsylvania
Current Conditions -  °F | °C
As of 10:53 AM on Saturday 25 Oct 2014 (Local Time) from KGKJ Reporting Station
Overcast Overcast  
Wind Chill: 54°   Ceiling: 6000
Heat Index: 54°   Visibility: 10mi
Dew Point: 45°   Wind: 7mph
Humidity: 72%   Direction: 220°SW
Pressure: 29.86"   Gusts: NA
Location:  41.77°N, 80.11°W
Report Text: KGKJ 251453Z AUTO 22006KT 10SM OVC060 12/07 A2986 RMK AO2 SLP111 T01220072 56017 TSNO $
Loading
Personal Weather Stations






























Interactive Weather Map
Tropical Storm Tracking
New forecast layout! Learn more

10-Day Weather Forecast

Advertisements
Track Severe Weather on mobile